Time;durP1;ratioP1;P1;durP2;ratioP2;P2;SDS_P1;SDS_P2;PMS_P1;PMS_P2;Temp;Humidity;BMP_temperature;BMP_pressure;BME280_temperature;BME280_humidity;BME280_pressure;Samples;Min_cycle;Max_cycle;Signal;HPM_P1;HPM_P2
2022/01/22 00:00:04;;;;;;;9.23;4.53;;;;;;;;;;5017096;28;20056;-70
2022/01/22 00:02:37;;;;;;;14.10;6.68;;;;;;;;;;5015587;28;20046;-70
2022/01/22 00:05:03;;;;;;;10.13;4.43;;;;;;;;;;5014048;28;20032;-69
2022/01/22 00:07:29;;;;;;;8.20;4.20;;;;;;;;;;5016124;28;20033;-70
2022/01/22 00:10:00;;;;;;;20.65;7.85;;;;;;;;;;5015348;28;20808;-69
2022/01/22 00:15:08;;;;;;;12.25;3.97;;;;;;;;;;5013899;28;20339;-69
2022/01/22 00:17:33;;;;;;;95.25;6.72;;;;;;;;;;5014266;28;20029;-68
2022/01/22 00:19:59;;;;;;;49.10;5.50;;;;;;;;;;5016046;28;20098;-69
2022/01/22 00:22:28;;;;;;;71.53;6.88;;;;;;;;;;5016065;28;20064;-68
2022/01/22 00:24:57;;;;;;;389.42;16.83;;;;;;;;;;5014640;28;20041;-68
2022/01/22 00:27:23;;;;;;;223.05;10.98;;;;;;;;;;5015673;28;20069;-70
2022/01/22 00:29:48;;;;;;;20.55;2.92;;;;;;;;;;5013476;28;20548;-68
2022/01/22 00:32:14;;;;;;;5.78;2.58;;;;;;;;;;5016693;28;20049;-71
2022/01/22 00:34:39;;;;;;;3.90;2.05;;;;;;;;;;5013353;28;20358;-70
2022/01/22 00:37:04;;;;;;;3.80;2.22;;;;;;;;;;5014669;28;20504;-69
2022/01/22 00:39:30;;;;;;;7.32;3.30;;;;;;;;;;5016203;28;20034;-69
2022/01/22 00:41:56;;;;;;;5.22;2.03;;;;;;;;;;5015469;28;20043;-68
2022/01/22 00:44:21;;;;;;;6.70;3.53;;;;;;;;;;5015836;28;20053;-70
2022/01/22 00:46:46;;;;;;;4.75;1.42;;;;;;;;;;5013082;28;20113;-70
2022/01/22 00:49:12;;;;;;;3.38;1.63;;;;;;;;;;5015524;28;20528;-69
2022/01/22 00:51:37;;;;;;;4.93;2.63;;;;;;;;;;5032649;28;20073;-71
2022/01/22 00:54:03;;;;;;;1.92;1.13;;;;;;;;;;5013171;28;20040;-68
2022/01/22 00:56:28;;;;;;;4.90;2.22;;;;;;;;;;5014094;28;20714;-69
2022/01/22 00:58:54;;;;;;;2.60;1.48;;;;;;;;;;5014212;28;20112;-71
2022/01/22 01:01:19;;;;;;;8.40;1.98;;;;;;;;;;5013608;28;20041;-68
2022/01/22 01:03:44;;;;;;;5.40;2.67;;;;;;;;;;5014757;28;20045;-69
2022/01/22 01:06:10;;;;;;;4.22;1.85;;;;;;;;;;5015406;28;20021;-69
2022/01/22 01:08:36;;;;;;;5.30;2.92;;;;;;;;;;5015533;28;20029;-70
2022/01/22 01:11:02;;;;;;;36.45;4.63;;;;;;;;;;5029073;28;20029;-69
2022/01/22 01:13:31;;;;;;;18.88;3.42;;;;;;;;;;5015294;28;20637;-69
2022/01/22 01:16:16;;;;;;;6.88;3.60;;;;;;;;;;5010710;28;20519;-69
2022/01/22 01:32:30;;;;;;;130.10;8.07;;;;;;;;;;5013251;28;20206;-69
2022/01/22 01:34:57;;;;;;;27.42;5.13;;;;;;;;;;5013114;28;20030;-69
2022/01/22 01:37:22;;;;;;;33.60;4.53;;;;;;;;;;5013368;28;20088;-70
2022/01/22 01:39:50;;;;;;;46.72;4.43;;;;;;;;;;5012055;28;20037;-69
2022/01/22 01:45:04;;;;;;;8.13;1.77;;;;;;;;;;5013228;28;20030;-69
2022/01/22 01:47:44;;;;;;;56.60;4.22;;;;;;;;;;5033726;28;20038;-69
2022/01/22 01:50:10;;;;;;;38.72;4.20;;;;;;;;;;5035259;28;20057;-70
2022/01/22 01:52:50;;;;;;;71.55;6.60;;;;;;;;;;5013636;28;20072;-69
2022/01/22 01:55:33;;;;;;;184.35;9.48;;;;;;;;;;5028207;28;20361;-69
2022/01/22 01:57:59;;;;;;;197.25;9.90;;;;;;;;;;5012494;28;20030;-69
2022/01/22 02:00:27;;;;;;;95.95;5.38;;;;;;;;;;5014206;28;20484;-71
2022/01/22 02:02:59;;;;;;;21.65;2.17;;;;;;;;;;5030743;28;20041;-69
2022/01/22 02:05:26;;;;;;;121.20;7.25;;;;;;;;;;5022618;28;20455;-70
2022/01/22 02:07:59;;;;;;;137.93;7.68;;;;;;;;;;5014742;28;20068;-71
2022/01/22 02:10:36;;;;;;;149.93;8.57;;;;;;;;;;5016996;28;20472;-69
2022/01/22 02:24:15;;;;;;;92.00;5.07;;;;;;;;;;5022969;28;20029;-69
2022/01/22 02:26:48;;;;;;;99.90;4.82;;;;;;;;;;5017941;28;20036;-69
2022/01/22 02:29:18;;;;;;;293.15;13.50;;;;;;;;;;5032595;28;20048;-69
2022/01/22 02:35:02;;;;;;;259.20;11.43;;;;;;;;;;5022492;28;20029;-69
2022/01/22 02:37:34;;;;;;;377.00;14.88;;;;;;;;;;5036226;28;20633;-69
2022/01/22 02:40:06;;;;;;;124.88;5.45;;;;;;;;;;5019589;28;20034;-69
2022/01/22 02:42:34;;;;;;;299.48;14.90;;;;;;;;;;5017622;28;20464;-69
2022/01/22 02:45:07;;;;;;;459.40;19.85;;;;;;;;;;5033092;28;20491;-71
2022/01/22 02:47:33;;;;;;;311.80;13.25;;;;;;;;;;5020291;28;20034;-71
2022/01/22 02:49:58;;;;;;;268.45;11.77;;;;;;;;;;5017889;28;20368;-69
2022/01/22 02:52:24;;;;;;;339.30;13.23;;;;;;;;;;5017947;28;20048;-69
2022/01/22 02:54:50;;;;;;;164.07;6.32;;;;;;;;;;5015347;28;20029;-71
2022/01/22 02:57:15;;;;;;;377.88;15.88;;;;;;;;;;5022045;28;20481;-69
2022/01/22 02:59:46;;;;;;;302.40;13.05;;;;;;;;;;5023980;28;20018;-70
2022/01/22 03:02:13;;;;;;;740.85;29.92;;;;;;;;;;5014620;28;20556;-69
2022/01/22 03:04:39;;;;;;;398.98;17.38;;;;;;;;;;5033498;28;20113;-70
2022/01/22 03:07:06;;;;;;;523.63;21.73;;;;;;;;;;5016376;28;20022;-68
2022/01/22 03:09:38;;;;;;;820.08;30.30;;;;;;;;;;5015578;28;20037;-69
2022/01/22 03:17:28;;;;;;;265.75;10.65;;;;;;;;;;5013849;28;20034;-69
2022/01/22 03:27:48;;;;;;;541.15;21.58;;;;;;;;;;5018894;28;20544;-70
2022/01/22 03:30:14;;;;;;;861.00;33.50;;;;;;;;;;5016043;28;20479;-69
2022/01/22 03:32:43;;;;;;;360.38;14.27;;;;;;;;;;5020830;28;20065;-69
2022/01/22 03:37:36;;;;;;;92.82;4.85;;;;;;;;;;5015956;28;20025;-69
2022/01/22 03:40:01;;;;;;;205.90;7.68;;;;;;;;;;5036701;28;20033;-68
2022/01/22 03:42:26;;;;;;;150.95;7.60;;;;;;;;;;5019632;28;20050;-69
2022/01/22 03:44:52;;;;;;;431.05;17.08;;;;;;;;;;5031601;28;20037;-71
2022/01/22 03:47:18;;;;;;;572.30;22.90;;;;;;;;;;5031253;28;20527;-69
2022/01/22 03:49:44;;;;;;;612.70;25.77;;;;;;;;;;5016074;28;20030;-70
2022/01/22 03:52:12;;;;;;;342.88;14.68;;;;;;;;;;5019245;28;20601;-69
2022/01/22 03:54:38;;;;;;;664.40;28.23;;;;;;;;;;5016585;28;20036;-69
2022/01/22 03:57:03;;;;;;;501.45;19.65;;;;;;;;;;5013555;28;20540;-70
2022/01/22 03:59:35;;;;;;;940.30;34.83;;;;;;;;;;5016080;28;20025;-68
2022/01/22 04:05:03;;;;;;;188.40;8.25;;;;;;;;;;5016920;28;20026;-71
2022/01/22 04:08:08;;;;;;;431.80;18.65;;;;;;;;;;5017763;28;20090;-69
2022/01/22 04:10:20;;;;;;;135.50;6.10;;;;;;;;;;5016696;28;20037;-70
2022/01/22 04:12:55;;;;;;;880.03;32.38;;;;;;;;;;5017047;28;20477;-69
2022/01/22 04:15:26;;;;;;;142.32;7.90;;;;;;;;;;5016332;28;20033;-69
2022/01/22 04:28:36;;;;;;;23.85;3.92;;;;;;;;;;5018006;28;20025;-69
2022/01/22 04:31:01;;;;;;;474.73;19.92;;;;;;;;;;5014720;28;20046;-69
2022/01/22 04:33:27;;;;;;;467.02;19.63;;;;;;;;;;5016246;28;20213;-69
2022/01/22 04:35:52;;;;;;;622.60;27.65;;;;;;;;;;5014408;28;20041;-71
2022/01/22 04:38:17;;;;;;;408.50;16.40;;;;;;;;;;5013420;28;20474;-68
2022/01/22 04:40:43;;;;;;;226.70;9.88;;;;;;;;;;5018178;28;20435;-68
2022/01/22 04:43:09;;;;;;;365.77;14.80;;;;;;;;;;5014696;28;20072;-68
2022/01/22 04:48:27;;;;;;;183.60;9.02;;;;;;;;;;5019598;28;20136;-68
2022/01/22 04:56:22;;;;;;;377.13;15.93;;;;;;;;;;5017023;28;20029;-69
2022/01/22 04:58:47;;;;;;;398.27;17.65;;;;;;;;;;5020924;28;20342;-68
2022/01/22 05:01:13;;;;;;;318.80;14.57;;;;;;;;;;5014863;28;20045;-69
2022/01/22 05:03:58;;;;;;;266.10;12.25;;;;;;;;;;5016471;28;20048;-69
2022/01/22 05:06:39;;;;;;;597.63;24.83;;;;;;;;;;5016287;28;20033;-70
2022/01/22 05:09:26;;;;;;;231.20;10.18;;;;;;;;;;5011799;28;20124;-70
2022/01/22 05:11:55;;;;;;;26.25;2.53;;;;;;;;;;5017442;28;20065;-70
2022/01/22 05:14:21;;;;;;;210.60;8.18;;;;;;;;;;5030410;28;20079;-70
2022/01/22 05:16:48;;;;;;;142.52;7.47;;;;;;;;;;5009622;28;20029;-71
2022/01/22 05:19:20;;;;;;;119.40;5.75;;;;;;;;;;5014478;28;20530;-70
2022/01/22 05:21:47;;;;;;;91.30;4.95;;;;;;;;;;5010940;28;20037;-68
2022/01/22 05:24:17;;;;;;;247.48;11.00;;;;;;;;;;5013173;28;20517;-69
2022/01/22 05:27:13;;;;;;;907.33;38.65;;;;;;;;;;5016052;28;20447;-70
2022/01/22 05:32:57;;;;;;;621.22;26.17;;;;;;;;;;5029857;28;20037;-69
2022/01/22 05:38:20;;;;;;;663.67;32.25;;;;;;;;;;5017017;28;20478;-68
2022/01/22 05:40:46;;;;;;;214.70;8.75;;;;;;;;;;5014224;28;20021;-69
2022/01/22 05:43:14;;;;;;;786.80;31.65;;;;;;;;;;5013095;28;20061;-68
2022/01/22 05:45:42;;;;;;;384.83;16.45;;;;;;;;;;5013512;28;20102;-69
2022/01/22 05:48:08;;;;;;;902.67;38.38;;;;;;;;;;5015142;28;20048;-69
2022/01/22 05:50:46;;;;;;;570.15;24.80;;;;;;;;;;5014026;28;20475;-69
2022/01/22 06:01:13;;;;;;;283.60;12.07;;;;;;;;;;5011994;28;20042;-69
2022/01/22 06:03:58;;;;;;;729.13;28.73;;;;;;;;;;5011646;28;20087;-69
2022/01/22 06:06:24;;;;;;;578.13;28.38;;;;;;;;;;5014100;28;20034;-69
2022/01/22 06:08:54;;;;;;;348.70;15.98;;;;;;;;;;5013334;28;20109;-69
2022/01/22 06:11:24;;;;;;;;;;;;;;;;;;5020085;28;20029;-69
2022/01/22 06:13:51;;;;;;;110.25;5.75;;;;;;;;;;5016544;28;19953;-70
2022/01/22 06:16:28;;;;;;;215.65;9.50;;;;;;;;;;5012637;28;20042;-68
2022/01/22 06:19:17;;;;;;;650.92;25.60;;;;;;;;;;5010545;28;20128;-69
2022/01/22 06:21:42;;;;;;;868.60;41.40;;;;;;;;;;5015178;28;20084;-68
2022/01/22 06:24:11;;;;;;;825.80;35.20;;;;;;;;;;5013251;28;20395;-70
2022/01/22 06:26:36;;;;;;;975.53;38.53;;;;;;;;;;5013203;28;20365;-69
2022/01/22 06:29:03;;;;;;;939.42;40.90;;;;;;;;;;5011435;28;20025;-68
2022/01/22 06:31:28;;;;;;;825.67;36.10;;;;;;;;;;5015343;28;20053;-70
2022/01/22 06:33:58;;;;;;;689.22;30.80;;;;;;;;;;5011038;28;20083;-69
2022/01/22 06:36:25;;;;;;;1166.95;50.25;;;;;;;;;;5034021;28;20524;-69
2022/01/22 06:38:57;;;;;;;967.67;41.55;;;;;;;;;;5018219;28;20488;-69
2022/01/22 06:41:45;;;;;;;162.20;11.00;;;;;;;;;;5011838;28;20053;-69
2022/01/22 06:44:34;;;;;;;377.85;17.15;;;;;;;;;;5013166;28;20041;-68
2022/01/22 06:47:19;;;;;;;639.42;28.92;;;;;;;;;;5013860;28;20037;-68
2022/01/22 06:49:53;;;;;;;942.55;41.70;;;;;;;;;;5015263;28;20377;-68
2022/01/22 06:52:39;;;;;;;491.25;21.75;;;;;;;;;;5016360;28;20036;-69
2022/01/22 06:55:11;;;;;;;;;;;;;;;;;;5016093;28;20437;-70
2022/01/22 06:57:37;;;;;;;722.28;33.55;;;;;;;;;;5036626;28;20351;-70
2022/01/22 07:00:06;;;;;;;540.72;22.58;;;;;;;;;;5022066;28;20060;-70
2022/01/22 07:02:33;;;;;;;256.80;12.07;;;;;;;;;;5039791;28;20052;-68
2022/01/22 07:04:59;;;;;;;239.13;14.32;;;;;;;;;;5037794;28;20036;-70
2022/01/22 07:07:31;;;;;;;813.13;35.90;;;;;;;;;;5033416;28;20021;-69
2022/01/22 07:09:56;;;;;;;426.98;18.63;;;;;;;;;;5042282;28;20033;-69
2022/01/22 07:12:22;;;;;;;1102.85;53.13;;;;;;;;;;5035565;28;20456;-70
2022/01/22 07:14:49;;;;;;;926.70;46.47;;;;;;;;;;5038891;28;20033;-71
2022/01/22 07:17:16;;;;;;;1065.60;44.38;;;;;;;;;;5040236;28;20087;-69
2022/01/22 07:19:52;;;;;;;1102.53;40.45;;;;;;;;;;5037513;28;20025;-69
2022/01/22 07:25:04;;;;;;;;;;;;;;;;;;5035406;28;20027;-69
2022/01/22 07:27:30;;;;;;;637.42;31.65;;;;;;;;;;5035444;28;19904;-69
2022/01/22 07:29:55;;;;;;;606.85;27.42;;;;;;;;;;5032986;28;20033;-70
2022/01/22 07:32:35;;;;;;;416.25;20.48;;;;;;;;;;5032717;28;20049;-69
2022/01/22 07:35:01;;;;;;;389.05;19.17;;;;;;;;;;5035461;28;20037;-69
2022/01/22 07:37:28;;;;;;;823.45;36.40;;;;;;;;;;5021991;28;20022;-69
2022/01/22 07:40:06;;;;;;;661.97;25.80;;;;;;;;;;5041324;28;20025;-69
2022/01/22 07:42:42;;;;;;;385.58;18.60;;;;;;;;;;5035318;28;20386;-69
2022/01/22 07:45:27;;;;;;;65.10;7.28;;;;;;;;;;5014280;28;20052;-68
2022/01/22 07:48:03;;;;;;;718.85;32.95;;;;;;;;;;5032770;28;20029;-68
2022/01/22 07:50:52;;;;;;;899.10;34.90;;;;;;;;;;5034860;28;20033;-69
2022/01/22 07:53:18;;;;;;;352.83;13.82;;;;;;;;;;5036638;28;20066;-68
2022/01/22 07:55:43;;;;;;;443.20;23.83;;;;;;;;;;5037614;28;20033;-70
2022/01/22 07:58:11;;;;;;;773.40;32.10;;;;;;;;;;5034232;28;20040;-68
2022/01/22 08:00:36;;;;;;;800.67;28.00;;;;;;;;;;5052393;28;20030;-69
2022/01/22 08:03:02;;;;;;;714.70;29.52;;;;;;;;;;5034595;28;20047;-70
2022/01/22 08:05:46;;;;;;;694.83;30.92;;;;;;;;;;5036672;28;20030;-70
2022/01/22 08:08:29;;;;;;;946.25;41.60;;;;;;;;;;5036730;28;20463;-70
2022/01/22 08:11:30;;;;;;;979.92;41.53;;;;;;;;;;5044394;28;20063;-69
2022/01/22 08:13:55;;;;;;;953.00;39.80;;;;;;;;;;5037876;28;20563;-71
2022/01/22 08:16:21;;;;;;;368.73;17.40;;;;;;;;;;5054092;28;20107;-69
2022/01/22 08:18:47;;;;;;;776.67;35.58;;;;;;;;;;5036195;28;20064;-70
2022/01/22 08:21:12;;;;;;;974.85;44.63;;;;;;;;;;5034895;28;20341;-69
2022/01/22 08:23:57;;;;;;;966.65;38.03;;;;;;;;;;5035825;28;20033;-69
2022/01/22 08:27:08;;;;;;;710.90;28.85;;;;;;;;;;5028991;28;20468;-69
2022/01/22 08:29:34;;;;;;;1126.95;42.38;;;;;;;;;;5036726;28;20102;-69
2022/01/22 08:32:09;;;;;;;467.10;21.63;;;;;;;;;;5040284;28;20560;-69
2022/01/22 08:37:20;;;;;;;1133.22;52.03;;;;;;;;;;5039024;28;20053;-69
2022/01/22 08:39:46;;;;;;;846.35;35.88;;;;;;;;;;5037687;28;20064;-69
2022/01/22 08:42:11;;;;;;;1143.63;45.45;;;;;;;;;;5035742;28;20143;-68
2022/01/22 08:44:37;;;;;;;1078.43;40.25;;;;;;;;;;5033827;28;20029;-71
2022/01/22 08:47:06;;;;;;;737.90;31.50;;;;;;;;;;5035162;28;20421;-69
2022/01/22 08:49:31;;;;;;;670.13;28.63;;;;;;;;;;5040517;28;20510;-70
2022/01/22 08:52:04;;;;;;;904.20;34.77;;;;;;;;;;5033768;28;20037;-69
2022/01/22 08:54:29;;;;;;;1100.97;45.45;;;;;;;;;;5041927;28;20037;-70
2022/01/22 08:56:57;;;;;;;15.40;4.35;;;;;;;;;;5033009;28;20279;-69
2022/01/22 08:59:23;;;;;;;1116.03;47.40;;;;;;;;;;5036184;28;20032;-71
2022/01/22 09:01:52;;;;;;;1234.38;48.33;;;;;;;;;;5050116;28;20024;-69
2022/01/22 09:04:35;;;;;;;1011.33;41.28;;;;;;;;;;5049192;28;20021;-69
2022/01/22 09:07:15;;;;;;;283.20;13.17;;;;;;;;;;5035405;28;20029;-68
2022/01/22 09:10:07;;;;;;;323.50;14.68;;;;;;;;;;5034537;28;20307;-68
2022/01/22 09:12:38;;;;;;;991.72;39.72;;;;;;;;;;5031868;28;20029;-69
2022/01/22 09:15:22;;;;;;;440.52;18.33;;;;;;;;;;5038031;28;20411;-70
2022/01/22 09:17:48;;;;;;;967.15;43.10;;;;;;;;;;5036205;28;20036;-70
2022/01/22 09:20:31;;;;;;;492.08;23.73;;;;;;;;;;5048049;28;20487;-69
2022/01/22 09:22:57;;;;;;;810.80;28.50;;;;;;;;;;5038961;28;20381;-68
2022/01/22 09:25:22;;;;;;;663.85;26.23;;;;;;;;;;5032551;28;20059;-69
2022/01/22 09:27:48;;;;;;;511.35;22.30;;;;;;;;;;5032058;28;20522;-69
2022/01/22 09:30:13;;;;;;;489.88;20.40;;;;;;;;;;5040250;28;20284;-68
2022/01/22 09:32:39;;;;;;;131.45;7.97;;;;;;;;;;5033549;28;20060;-69
2022/01/22 09:35:18;;;;;;;630.40;27.25;;;;;;;;;;5035871;28;20308;-69
2022/01/22 09:38:03;;;;;;;477.02;19.85;;;;;;;;;;5032032;28;20056;-68
2022/01/22 09:40:35;;;;;;;677.90;29.85;;;;;;;;;;5035458;28;20029;-69
2022/01/22 09:43:19;;;;;;;298.63;13.98;;;;;;;;;;5034116;28;20527;-69
2022/01/22 09:46:07;;;;;;;422.88;20.27;;;;;;;;;;5033674;28;20535;-69
2022/01/22 09:48:47;;;;;;;423.38;18.35;;;;;;;;;;5064607;28;20357;-69
2022/01/22 09:51:22;;;;;;;186.65;9.35;;;;;;;;;;5033524;28;20112;-68
2022/01/22 09:54:05;;;;;;;303.13;15.43;;;;;;;;;;5066327;28;20111;-68
2022/01/22 09:56:52;;;;;;;382.92;18.27;;;;;;;;;;5038442;28;20412;-68
2022/01/22 09:59:38;;;;;;;648.50;27.90;;;;;;;;;;5034370;28;20443;-68
2022/01/22 10:02:15;;;;;;;765.78;29.88;;;;;;;;;;5036714;28;20053;-71
2022/01/22 10:04:42;;;;;;;336.45;15.07;;;;;;;;;;5039872;28;20053;-71
2022/01/22 10:07:26;;;;;;;196.30;10.88;;;;;;;;;;5033363;28;20296;-69
2022/01/22 10:10:11;;;;;;;808.67;32.17;;;;;;;;;;5034461;28;20055;-69
2022/01/22 10:12:44;;;;;;;265.02;12.38;;;;;;;;;;5033557;28;20045;-69
2022/01/22 10:15:45;;;;;;;533.53;24.13;;;;;;;;;;5028224;28;20041;-69
2022/01/22 10:18:18;;;;;;;558.40;23.45;;;;;;;;;;5032376;28;20033;-68
2022/01/22 10:20:43;;;;;;;933.30;36.67;;;;;;;;;;5036859;28;20030;-69
2022/01/22 10:23:16;;;;;;;967.35;33.88;;;;;;;;;;5033979;28;20036;-68
2022/01/22 10:25:46;;;;;;;450.45;19.58;;;;;;;;;;5037341;28;20029;-70
2022/01/22 10:28:17;;;;;;;527.75;22.63;;;;;;;;;;5036062;28;20021;-70
2022/01/22 10:30:44;;;;;;;721.25;31.10;;;;;;;;;;5036339;28;20036;-69
2022/01/22 10:33:20;;;;;;;873.20;38.40;;;;;;;;;;5037373;28;20031;-69
2022/01/22 10:36:07;;;;;;;290.02;13.77;;;;;;;;;;5039843;28;20040;-68
2022/01/22 10:38:53;;;;;;;515.35;21.77;;;;;;;;;;5036763;28;20028;-69
2022/01/22 10:41:31;;;;;;;605.08;24.90;;;;;;;;;;5036442;28;20578;-70
2022/01/22 10:43:56;;;;;;;664.40;27.77;;;;;;;;;;5035210;28;20046;-68
2022/01/22 10:49:25;;;;;;;531.40;20.70;;;;;;;;;;5034804;28;20736;-69
2022/01/22 10:51:55;;;;;;;234.88;10.32;;;;;;;;;;5036646;28;20613;-68
2022/01/22 10:54:21;;;;;;;579.15;25.08;;;;;;;;;;5035844;28;20029;-69
2022/01/22 10:56:47;;;;;;;903.42;36.20;;;;;;;;;;5035993;28;20143;-68
2022/01/22 10:59:14;;;;;;;920.00;34.35;;;;;;;;;;5040019;28;20502;-69
2022/01/22 11:01:48;;;;;;;796.60;30.73;;;;;;;;;;5039630;28;20084;-70
2022/01/22 11:04:14;;;;;;;942.05;34.55;;;;;;;;;;5039482;28;20069;-69
2022/01/22 11:06:46;;;;;;;361.75;14.63;;;;;;;;;;5039305;28;20037;-69
2022/01/22 11:09:12;;;;;;;809.70;29.63;;;;;;;;;;5037757;28;20068;-69
2022/01/22 11:11:40;;;;;;;268.80;13.30;;;;;;;;;;5038745;28;20067;-68
2022/01/22 11:14:06;;;;;;;656.88;28.48;;;;;;;;;;5035031;28;20430;-68
2022/01/22 11:16:32;;;;;;;361.55;14.15;;;;;;;;;;5037863;28;20036;-69
2022/01/22 11:18:58;;;;;;;331.02;14.55;;;;;;;;;;5036815;28;20365;-69
2022/01/22 11:21:24;;;;;;;290.08;13.68;;;;;;;;;;5037932;28;20036;-68
2022/01/22 11:23:50;;;;;;;754.75;31.15;;;;;;;;;;5038468;28;20545;-69
2022/01/22 11:26:16;;;;;;;667.55;26.05;;;;;;;;;;5036315;28;20061;-69
2022/01/22 11:28:43;;;;;;;538.35;22.77;;;;;;;;;;5038038;28;20532;-69
2022/01/22 11:31:10;;;;;;;361.27;14.02;;;;;;;;;;5034245;28;20045;-68
2022/01/22 11:33:38;;;;;;;792.70;31.17;;;;;;;;;;5039079;28;20033;-68
2022/01/22 11:36:26;;;;;;;668.97;30.83;;;;;;;;;;5036240;28;20635;-68
2022/01/22 11:38:56;;;;;;;677.75;27.55;;;;;;;;;;5035043;28;20094;-69
2022/01/22 11:41:23;;;;;;;199.77;10.18;;;;;;;;;;5033899;28;20131;-69
2022/01/22 11:46:29;;;;;;;197.07;12.60;;;;;;;;;;5040883;28;20116;-68
2022/01/22 11:49:08;;;;;;;598.92;23.27;;;;;;;;;;5032944;28;20495;-70
2022/01/22 11:51:33;;;;;;;92.75;9.02;;;;;;;;;;5034268;28;20040;-68
2022/01/22 11:54:00;;;;;;;321.52;15.73;;;;;;;;;;5034572;28;20487;-68
2022/01/22 11:56:29;;;;;;;65.68;6.72;;;;;;;;;;5030911;28;20034;-68
2022/01/22 11:59:01;;;;;;;172.70;9.93;;;;;;;;;;5032130;28;20471;-69
2022/01/22 12:01:51;;;;;;;305.08;13.88;;;;;;;;;;5034062;28;20067;-68
2022/01/22 12:04:17;;;;;;;691.42;26.77;;;;;;;;;;5026867;28;20072;-71
2022/01/22 12:07:01;;;;;;;910.72;31.45;;;;;;;;;;4334763;28;10000223;-70
2022/01/22 12:09:52;;;;;;;295.73;12.38;;;;;;;;;;5029125;28;20029;-68
2022/01/22 12:15:04;;;;;;;615.75;22.48;;;;;;;;;;5033325;28;20033;-68
2022/01/22 12:23:13;;;;;;;213.30;9.95;;;;;;;;;;5031029;28;20106;-71
2022/01/22 12:25:38;;;;;;;24.73;4.65;;;;;;;;;;5031508;28;20426;-68
2022/01/22 12:28:04;;;;;;;244.05;11.60;;;;;;;;;;5029548;28;20029;-70
2022/01/22 12:30:34;;;;;;;266.58;12.60;;;;;;;;;;5030011;28;20075;-68
2022/01/22 12:33:01;;;;;;;36.42;7.93;;;;;;;;;;5029804;28;20107;-69
2022/01/22 12:35:37;;;;;;;7.47;3.63;;;;;;;;;;5030028;28;20038;-68
2022/01/22 12:38:16;;;;;;;7.60;3.55;;;;;;;;;;5032117;28;20038;-69
2022/01/22 12:40:43;;;;;;;12.20;5.25;;;;;;;;;;5036267;28;20040;-70
2022/01/22 12:43:12;;;;;;;28.45;7.00;;;;;;;;;;5049887;28;20098;-68
2022/01/22 12:45:38;;;;;;;14.30;6.32;;;;;;;;;;5036191;28;20032;-69
2022/01/22 12:48:04;;;;;;;11.68;5.00;;;;;;;;;;5041273;28;20047;-70
2022/01/22 12:50:32;;;;;;;127.57;9.15;;;;;;;;;;5053889;28;20033;-69
2022/01/22 12:53:03;;;;;;;19.80;5.43;;;;;;;;;;5050948;28;20215;-69
2022/01/22 12:55:49;;;;;;;277.30;12.32;;;;;;;;;;5043338;28;20329;-70
2022/01/22 12:58:23;;;;;;;34.72;6.05;;;;;;;;;;5037082;28;20078;-71
2022/01/22 13:00:51;;;;;;;7.50;3.33;;;;;;;;;;5053927;28;20040;-71
2022/01/22 13:03:33;;;;;;;13.13;4.35;;;;;;;;;;5059366;28;20479;-69
2022/01/22 13:05:59;;;;;;;54.08;6.68;;;;;;;;;;5059903;28;20035;-68
2022/01/22 13:08:44;;;;;;;10.40;5.05;;;;;;;;;;5060060;28;20036;-69
2022/01/22 13:11:23;;;;;;;8.45;4.28;;;;;;;;;;5063681;28;20024;-69
2022/01/22 13:13:50;;;;;;;5.03;2.55;;;;;;;;;;5063616;28;20029;-71
2022/01/22 13:16:17;;;;;;;11.25;4.90;;;;;;;;;;5060910;28;20032;-69
2022/01/22 13:18:47;;;;;;;7.53;3.72;;;;;;;;;;5061896;28;20035;-69
2022/01/22 13:21:13;;;;;;;5.72;3.35;;;;;;;;;;5059797;28;20060;-69
2022/01/22 13:23:39;;;;;;;7.55;3.83;;;;;;;;;;5060862;28;20046;-68
2022/01/22 13:26:05;;;;;;;8.90;3.78;;;;;;;;;;5059785;28;20028;-69
2022/01/22 13:28:34;;;;;;;6.05;3.08;;;;;;;;;;5059325;28;20118;-70
2022/01/22 13:31:06;;;;;;;4.22;2.35;;;;;;;;;;5058265;28;20037;-69
2022/01/22 13:33:43;;;;;;;5.00;2.88;;;;;;;;;;5060924;28;20094;-69
2022/01/22 13:36:22;;;;;;;6.28;3.33;;;;;;;;;;5059600;28;20490;-69
2022/01/22 13:49:37;;;;;;;5.47;3.05;;;;;;;;;;5060498;28;20111;-69
2022/01/22 13:52:07;;;;;;;5.05;2.55;;;;;;;;;;5060129;28;20037;-70
2022/01/22 13:54:36;;;;;;;4.25;1.77;;;;;;;;;;5059330;28;20542;-69
2022/01/22 13:57:06;;;;;;;6.82;3.60;;;;;;;;;;5058335;28;20032;-69
2022/01/22 13:59:34;;;;;;;7.20;3.60;;;;;;;;;;5061928;28;20490;-68
2022/01/22 14:04:47;;;;;;;9.48;4.78;;;;;;;;;;5065016;28;20482;-70
2022/01/22 14:07:18;;;;;;;10.77;4.60;;;;;;;;;;5061937;28;20025;-70
2022/01/22 14:09:54;;;;;;;9.43;3.92;;;;;;;;;;5063601;28;20218;-70
2022/01/22 14:12:19;;;;;;;9.77;4.75;;;;;;;;;;5064478;28;20036;-69
2022/01/22 14:14:59;;;;;;;11.77;5.63;;;;;;;;;;5066383;28;20024;-68
2022/01/22 14:17:28;;;;;;;9.25;3.88;;;;;;;;;;5066441;28;20116;-70
2022/01/22 14:20:00;;;;;;;13.32;6.32;;;;;;;;;;5067113;28;20025;-69
2022/01/22 14:22:25;;;;;;;10.60;5.22;;;;;;;;;;5066733;28;20056;-69
2022/01/22 14:25:07;;;;;;;11.00;5.20;;;;;;;;;;5068016;28;20028;-68
2022/01/22 14:27:33;;;;;;;8.98;4.55;;;;;;;;;;5067441;28;20167;-68
2022/01/22 14:29:58;;;;;;;11.30;5.63;;;;;;;;;;5066604;28;20588;-69
2022/01/22 14:32:23;;;;;;;12.85;5.88;;;;;;;;;;5047952;28;20063;-70
2022/01/22 14:34:49;;;;;;;11.68;5.05;;;;;;;;;;5067210;28;20028;-68
2022/01/22 14:37:25;;;;;;;10.82;5.10;;;;;;;;;;5065251;28;20032;-69
2022/01/22 14:45:22;;;;;;;17.40;4.10;;;;;;;;;;5066285;28;20032;-70
2022/01/22 14:47:54;;;;;;;112.07;8.60;;;;;;;;;;5065244;28;20025;-69
2022/01/22 14:50:20;;;;;;;241.45;11.40;;;;;;;;;;5065620;28;20475;-70
2022/01/22 14:52:47;;;;;;;12.40;5.82;;;;;;;;;;5065441;28;20027;-70
2022/01/22 14:55:13;;;;;;;2.47;1.65;;;;;;;;;;5063678;28;20521;-68
2022/01/22 14:57:39;;;;;;;18.38;6.43;;;;;;;;;;5065759;28;20059;-68
2022/01/22 15:00:07;;;;;;;141.30;8.95;;;;;;;;;;5065639;28;20360;-68
2022/01/22 15:02:33;;;;;;;25.58;5.63;;;;;;;;;;5065465;28;20052;-69
2022/01/22 15:04:58;;;;;;;38.08;6.30;;;;;;;;;;5065899;28;20033;-69
2022/01/22 15:07:23;;;;;;;9.48;4.65;;;;;;;;;;5065075;28;20028;-68
2022/01/22 15:09:50;;;;;;;10.55;4.93;;;;;;;;;;5065313;28;20024;-68
2022/01/22 15:12:18;;;;;;;10.52;5.35;;;;;;;;;;5065284;28;20040;-69
2022/01/22 15:14:47;;;;;;;7.75;4.32;;;;;;;;;;5066641;28;20406;-68
2022/01/22 15:19:39;;;;;;;10.85;4.50;;;;;;;;;;5066916;28;20029;-68
2022/01/22 15:22:05;;;;;;;28.95;6.80;;;;;;;;;;5066812;28;20032;-68
2022/01/22 15:24:31;;;;;;;11.88;5.05;;;;;;;;;;5066499;28;20749;-68
2022/01/22 15:26:56;;;;;;;14.70;6.40;;;;;;;;;;5065610;28;20068;-68
2022/01/22 15:29:27;;;;;;;75.80;7.78;;;;;;;;;;5064531;28;20112;-68
2022/01/22 15:34:43;;;;;;;302.08;13.27;;;;;;;;;;5042291;28;20064;-70
2022/01/22 15:37:09;;;;;;;15.13;6.35;;;;;;;;;;5062990;28;20033;-71
2022/01/22 15:39:35;;;;;;;18.70;6.80;;;;;;;;;;5064021;28;20033;-68
2022/01/22 15:42:01;;;;;;;11.13;3.92;;;;;;;;;;5063939;28;20045;-70
2022/01/22 15:44:26;;;;;;;15.93;6.03;;;;;;;;;;5064110;28;20312;-70
2022/01/22 15:46:52;;;;;;;11.80;6.05;;;;;;;;;;5063276;28;20028;-70
2022/01/22 15:49:21;;;;;;;13.73;5.70;;;;;;;;;;5062769;28;20071;-69
2022/01/22 15:51:48;;;;;;;13.32;5.95;;;;;;;;;;5065271;28;20063;-69
2022/01/22 15:54:13;;;;;;;11.68;5.03;;;;;;;;;;5057370;28;20486;-69
2022/01/22 15:56:39;;;;;;;13.73;5.55;;;;;;;;;;5061962;28;20028;-69
2022/01/22 15:59:05;;;;;;;7.78;4.20;;;;;;;;;;5059935;28;20173;-70
2022/01/22 16:01:31;;;;;;;14.00;6.50;;;;;;;;;;5061119;28;20514;-69
2022/01/22 16:03:57;;;;;;;15.25;6.38;;;;;;;;;;5060243;28;20032;-70
2022/01/22 16:06:33;;;;;;;17.65;7.05;;;;;;;;;;5061412;28;20500;-69
2022/01/22 16:08:59;;;;;;;17.13;7.25;;;;;;;;;;5060284;28;20039;-69
2022/01/22 16:11:24;;;;;;;12.27;6.15;;;;;;;;;;5061091;28;20028;-69
2022/01/22 16:13:49;;;;;;;15.27;5.68;;;;;;;;;;5061624;28;20029;-69
2022/01/22 16:16:15;;;;;;;16.90;7.93;;;;;;;;;;5059581;28;20043;-68
2022/01/22 16:18:40;;;;;;;17.42;7.25;;;;;;;;;;5061465;28;20036;-70
2022/01/22 16:21:06;;;;;;;18.83;8.30;;;;;;;;;;5060730;28;20055;-70
2022/01/22 16:23:31;;;;;;;15.77;7.22;;;;;;;;;;5041595;28;20045;-69
2022/01/22 16:25:56;;;;;;;19.00;7.93;;;;;;;;;;5060588;28;20047;-69
2022/01/22 16:28:22;;;;;;;20.58;8.23;;;;;;;;;;5061028;28;20132;-70
2022/01/22 16:30:47;;;;;;;11.55;5.28;;;;;;;;;;5059929;28;20431;-69
2022/01/22 16:33:14;;;;;;;19.17;7.57;;;;;;;;;;5061024;28;20042;-69
2022/01/22 16:35:39;;;;;;;15.07;6.35;;;;;;;;;;5060550;28;20033;-69
2022/01/22 16:38:06;;;;;;;8.98;4.35;;;;;;;;;;5057602;28;20098;-69
2022/01/22 16:40:32;;;;;;;16.50;7.65;;;;;;;;;;5062471;28;20024;-69
2022/01/22 16:42:59;;;;;;;21.13;5.78;;;;;;;;;;5044187;28;20056;-69
2022/01/22 16:54:19;;;;;;;16.67;7.65;;;;;;;;;;5039173;28;20037;-68